sensor_id;sensor_type;location;lat;lon;timestamp;P1;durP1;ratioP1;P2;durP2;ratioP2
38725;SDS011;24474;48.906;8.808;2023-03-01T00:01:10;18.83;;;13.70;;
38725;SDS011;24474;48.906;8.808;2023-03-01T00:03:38;19.23;;;13.98;;
38725;SDS011;24474;48.906;8.808;2023-03-01T00:06:05;19.02;;;13.73;;
38725;SDS011;24474;48.906;8.808;2023-03-01T00:08:31;20.70;;;13.88;;
38725;SDS011;24474;48.906;8.808;2023-03-01T00:13:30;19.85;;;12.85;;
38725;SDS011;24474;48.906;8.808;2023-03-01T00:15:56;19.70;;;12.98;;
38725;SDS011;24474;48.906;8.808;2023-03-01T00:18:22;20.75;;;13.40;;
38725;SDS011;24474;48.906;8.808;2023-03-01T00:20:51;21.08;;;14.23;;
38725;SDS011;24474;48.906;8.808;2023-03-01T00:23:17;22.37;;;13.60;;
38725;SDS011;24474;48.906;8.808;2023-03-01T00:25:43;20.75;;;14.32;;
38725;SDS011;24474;48.906;8.808;2023-03-01T00:28:09;19.73;;;13.65;;
38725;SDS011;24474;48.906;8.808;2023-03-01T00:30:35;20.92;;;13.18;;
38725;SDS011;24474;48.906;8.808;2023-03-01T00:33:01;20.58;;;13.57;;
38725;SDS011;24474;48.906;8.808;2023-03-01T00:35:27;23.17;;;13.50;;
38725;SDS011;24474;48.906;8.808;2023-03-01T00:37:52;20.52;;;12.90;;
38725;SDS011;24474;48.906;8.808;2023-03-01T00:40:25;20.00;;;13.33;;
38725;SDS011;24474;48.906;8.808;2023-03-01T00:42:53;20.55;;;13.80;;
38725;SDS011;24474;48.906;8.808;2023-03-01T00:45:19;20.42;;;14.23;;
38725;SDS011;24474;48.906;8.808;2023-03-01T00:47:44;21.73;;;13.23;;
38725;SDS011;24474;48.906;8.808;2023-03-01T00:50:11;19.38;;;13.63;;
38725;SDS011;24474;48.906;8.808;2023-03-01T00:52:37;22.00;;;12.45;;
38725;SDS011;24474;48.906;8.808;2023-03-01T00:55:03;19.70;;;13.68;;
38725;SDS011;24474;48.906;8.808;2023-03-01T00:57:29;22.52;;;13.52;;
38725;SDS011;24474;48.906;8.808;2023-03-01T00:59:55;21.40;;;14.52;;
38725;SDS011;24474;48.906;8.808;2023-03-01T01:02:23;18.88;;;12.88;;
38725;SDS011;24474;48.906;8.808;2023-03-01T01:04:51;18.50;;;13.20;;
38725;SDS011;24474;48.906;8.808;2023-03-01T01:07:17;19.50;;;12.77;;
38725;SDS011;24474;48.906;8.808;2023-03-01T01:09:45;19.20;;;13.25;;
38725;SDS011;24474;48.906;8.808;2023-03-01T01:12:11;18.17;;;12.95;;
38725;SDS011;24474;48.906;8.808;2023-03-01T01:14:37;19.52;;;13.07;;
38725;SDS011;24474;48.906;8.808;2023-03-01T01:17:03;19.17;;;12.98;;
38725;SDS011;24474;48.906;8.808;2023-03-01T01:19:29;20.90;;;13.98;;
38725;SDS011;24474;48.906;8.808;2023-03-01T01:21:55;22.55;;;13.85;;
38725;SDS011;24474;48.906;8.808;2023-03-01T01:24:20;18.15;;;13.93;;
38725;SDS011;24474;48.906;8.808;2023-03-01T01:26:46;20.08;;;13.30;;
38725;SDS011;24474;48.906;8.808;2023-03-01T01:29:12;19.90;;;13.70;;
38725;SDS011;24474;48.906;8.808;2023-03-01T01:31:39;19.92;;;13.65;;
38725;SDS011;24474;48.906;8.808;2023-03-01T01:34:07;19.02;;;13.60;;
38725;SDS011;24474;48.906;8.808;2023-03-01T01:36:37;21.45;;;13.70;;
38725;SDS011;24474;48.906;8.808;2023-03-01T01:39:03;19.27;;;13.82;;
38725;SDS011;24474;48.906;8.808;2023-03-01T01:41:29;21.48;;;13.80;;
38725;SDS011;24474;48.906;8.808;2023-03-01T01:44:12;22.38;;;14.38;;
38725;SDS011;24474;48.906;8.808;2023-03-01T01:46:47;20.42;;;14.13;;
38725;SDS011;24474;48.906;8.808;2023-03-01T01:57:26;20.20;;;13.05;;
38725;SDS011;24474;48.906;8.808;2023-03-01T02:00:00;18.40;;;13.43;;
38725;SDS011;24474;48.906;8.808;2023-03-01T02:02:31;20.92;;;13.68;;
38725;SDS011;24474;48.906;8.808;2023-03-01T02:05:03;17.92;;;12.05;;
38725;SDS011;24474;48.906;8.808;2023-03-01T02:07:42;19.52;;;12.20;;
38725;SDS011;24474;48.906;8.808;2023-03-01T02:10:09;20.88;;;12.70;;
38725;SDS011;24474;48.906;8.808;2023-03-01T02:12:35;19.90;;;13.70;;
38725;SDS011;24474;48.906;8.808;2023-03-01T02:15:01;21.35;;;13.93;;
38725;SDS011;24474;48.906;8.808;2023-03-01T02:17:28;23.38;;;13.10;;
38725;SDS011;24474;48.906;8.808;2023-03-01T02:20:00;19.45;;;13.20;;
38725;SDS011;24474;48.906;8.808;2023-03-01T02:22:35;19.27;;;13.07;;
38725;SDS011;24474;48.906;8.808;2023-03-01T02:28:17;19.63;;;13.10;;
38725;SDS011;24474;48.906;8.808;2023-03-01T02:30:56;19.92;;;12.23;;
38725;SDS011;24474;48.906;8.808;2023-03-01T02:33:41;22.05;;;13.85;;
38725;SDS011;24474;48.906;8.808;2023-03-01T02:36:09;18.75;;;13.48;;
38725;SDS011;24474;48.906;8.808;2023-03-01T02:38:39;21.23;;;13.27;;
38725;SDS011;24474;48.906;8.808;2023-03-01T02:41:06;19.45;;;13.55;;
38725;SDS011;24474;48.906;8.808;2023-03-01T02:43:33;21.35;;;14.40;;
38725;SDS011;24474;48.906;8.808;2023-03-01T02:46:07;21.30;;;13.52;;
38725;SDS011;24474;48.906;8.808;2023-03-01T02:48:42;19.90;;;14.13;;
38725;SDS011;24474;48.906;8.808;2023-03-01T02:51:14;26.73;;;14.38;;
38725;SDS011;24474;48.906;8.808;2023-03-01T02:56:35;23.60;;;15.32;;
38725;SDS011;24474;48.906;8.808;2023-03-01T02:59:00;21.30;;;13.75;;
38725;SDS011;24474;48.906;8.808;2023-03-01T03:01:27;19.75;;;14.10;;
38725;SDS011;24474;48.906;8.808;2023-03-01T03:04:02;21.65;;;14.52;;
38725;SDS011;24474;48.906;8.808;2023-03-01T03:06:32;21.58;;;14.63;;
38725;SDS011;24474;48.906;8.808;2023-03-01T03:08:58;20.75;;;14.55;;
38725;SDS011;24474;48.906;8.808;2023-03-01T03:11:25;22.00;;;15.30;;
38725;SDS011;24474;48.906;8.808;2023-03-01T03:13:51;20.58;;;14.85;;
38725;SDS011;24474;48.906;8.808;2023-03-01T03:16:17;21.02;;;15.20;;
38725;SDS011;24474;48.906;8.808;2023-03-01T03:18:43;24.25;;;15.63;;
38725;SDS011;24474;48.906;8.808;2023-03-01T03:21:09;21.20;;;14.48;;
38725;SDS011;24474;48.906;8.808;2023-03-01T03:23:36;21.60;;;14.88;;
38725;SDS011;24474;48.906;8.808;2023-03-01T03:26:03;26.73;;;14.98;;
38725;SDS011;24474;48.906;8.808;2023-03-01T03:28:30;19.58;;;13.77;;
38725;SDS011;24474;48.906;8.808;2023-03-01T03:30:57;21.60;;;14.50;;
38725;SDS011;24474;48.906;8.808;2023-03-01T03:33:23;23.25;;;13.90;;
38725;SDS011;24474;48.906;8.808;2023-03-01T03:35:49;23.27;;;14.63;;
38725;SDS011;24474;48.906;8.808;2023-03-01T03:38:17;23.00;;;15.27;;
38725;SDS011;24474;48.906;8.808;2023-03-01T03:40:48;22.13;;;15.15;;
38725;SDS011;24474;48.906;8.808;2023-03-01T03:43:16;25.05;;;15.00;;
38725;SDS011;24474;48.906;8.808;2023-03-01T03:45:44;22.80;;;14.65;;
38725;SDS011;24474;48.906;8.808;2023-03-01T03:48:11;22.40;;;14.35;;
38725;SDS011;24474;48.906;8.808;2023-03-01T03:50:37;21.42;;;14.60;;
38725;SDS011;24474;48.906;8.808;2023-03-01T03:53:04;22.83;;;15.20;;
38725;SDS011;24474;48.906;8.808;2023-03-01T03:55:32;23.10;;;15.60;;
38725;SDS011;24474;48.906;8.808;2023-03-01T03:57:59;23.25;;;15.38;;
38725;SDS011;24474;48.906;8.808;2023-03-01T04:00:31;22.38;;;14.73;;
38725;SDS011;24474;48.906;8.808;2023-03-01T04:02:59;22.67;;;14.93;;
38725;SDS011;24474;48.906;8.808;2023-03-01T04:05:25;22.30;;;15.43;;
38725;SDS011;24474;48.906;8.808;2023-03-01T04:07:51;22.20;;;15.50;;
38725;SDS011;24474;48.906;8.808;2023-03-01T04:10:33;23.38;;;15.10;;
38725;SDS011;24474;48.906;8.808;2023-03-01T04:13:04;23.27;;;15.93;;
38725;SDS011;24474;48.906;8.808;2023-03-01T04:15:30;24.80;;;15.43;;
38725;SDS011;24474;48.906;8.808;2023-03-01T04:17:58;21.83;;;14.98;;
38725;SDS011;24474;48.906;8.808;2023-03-01T04:20:25;22.23;;;15.75;;
38725;SDS011;24474;48.906;8.808;2023-03-01T04:22:57;23.42;;;15.48;;
38725;SDS011;24474;48.906;8.808;2023-03-01T04:25:25;23.15;;;15.88;;
38725;SDS011;24474;48.906;8.808;2023-03-01T04:27:51;24.83;;;16.30;;
38725;SDS011;24474;48.906;8.808;2023-03-01T04:30:17;24.38;;;16.30;;
38725;SDS011;24474;48.906;8.808;2023-03-01T04:32:42;26.15;;;17.02;;
38725;SDS011;24474;48.906;8.808;2023-03-01T04:35:08;25.38;;;17.30;;
38725;SDS011;24474;48.906;8.808;2023-03-01T04:37:34;24.70;;;16.60;;
38725;SDS011;24474;48.906;8.808;2023-03-01T04:40:00;22.23;;;16.33;;
38725;SDS011;24474;48.906;8.808;2023-03-01T04:42:33;24.10;;;16.08;;
38725;SDS011;24474;48.906;8.808;2023-03-01T04:44:59;25.63;;;16.48;;
38725;SDS011;24474;48.906;8.808;2023-03-01T04:47:24;22.95;;;16.17;;
38725;SDS011;24474;48.906;8.808;2023-03-01T04:49:50;23.65;;;16.02;;
38725;SDS011;24474;48.906;8.808;2023-03-01T04:52:15;26.30;;;16.77;;
38725;SDS011;24474;48.906;8.808;2023-03-01T04:54:41;23.80;;;16.52;;
38725;SDS011;24474;48.906;8.808;2023-03-01T04:57:08;24.00;;;16.20;;
38725;SDS011;24474;48.906;8.808;2023-03-01T04:59:33;22.38;;;15.77;;
38725;SDS011;24474;48.906;8.808;2023-03-01T05:02:01;25.55;;;16.75;;
38725;SDS011;24474;48.906;8.808;2023-03-01T05:04:26;22.98;;;15.80;;
38725;SDS011;24474;48.906;8.808;2023-03-01T05:06:52;21.33;;;15.77;;
38725;SDS011;24474;48.906;8.808;2023-03-01T05:09:18;22.95;;;16.35;;
38725;SDS011;24474;48.906;8.808;2023-03-01T05:11:44;23.17;;;16.52;;
38725;SDS011;24474;48.906;8.808;2023-03-01T05:14:10;23.02;;;16.10;;
38725;SDS011;24474;48.906;8.808;2023-03-01T05:16:36;22.67;;;15.25;;
38725;SDS011;24474;48.906;8.808;2023-03-01T05:19:02;22.67;;;15.27;;
38725;SDS011;24474;48.906;8.808;2023-03-01T05:21:36;23.00;;;16.13;;
38725;SDS011;24474;48.906;8.808;2023-03-01T05:24:23;23.67;;;16.10;;
38725;SDS011;24474;48.906;8.808;2023-03-01T05:26:49;22.98;;;15.68;;
38725;SDS011;24474;48.906;8.808;2023-03-01T05:29:17;21.67;;;15.75;;
38725;SDS011;24474;48.906;8.808;2023-03-01T05:31:50;21.58;;;15.48;;
38725;SDS011;24474;48.906;8.808;2023-03-01T05:34:18;25.05;;;15.93;;
38725;SDS011;24474;48.906;8.808;2023-03-01T05:36:47;21.73;;;14.70;;
38725;SDS011;24474;48.906;8.808;2023-03-01T05:39:13;25.02;;;16.45;;
38725;SDS011;24474;48.906;8.808;2023-03-01T05:41:40;25.20;;;16.83;;
38725;SDS011;24474;48.906;8.808;2023-03-01T05:44:06;25.48;;;16.35;;
38725;SDS011;24474;48.906;8.808;2023-03-01T05:46:33;23.25;;;16.40;;
38725;SDS011;24474;48.906;8.808;2023-03-01T05:48:58;26.52;;;17.58;;
38725;SDS011;24474;48.906;8.808;2023-03-01T05:51:25;26.48;;;16.83;;
38725;SDS011;24474;48.906;8.808;2023-03-01T05:53:51;24.05;;;15.68;;
38725;SDS011;24474;48.906;8.808;2023-03-01T05:56:17;25.15;;;16.60;;
38725;SDS011;24474;48.906;8.808;2023-03-01T05:58:42;23.33;;;16.17;;
38725;SDS011;24474;48.906;8.808;2023-03-01T06:01:13;22.77;;;15.65;;
38725;SDS011;24474;48.906;8.808;2023-03-01T06:03:38;25.08;;;16.67;;
38725;SDS011;24474;48.906;8.808;2023-03-01T06:06:04;25.35;;;17.38;;
38725;SDS011;24474;48.906;8.808;2023-03-01T06:08:30;26.70;;;17.10;;
38725;SDS011;24474;48.906;8.808;2023-03-01T06:10:55;28.70;;;16.83;;
38725;SDS011;24474;48.906;8.808;2023-03-01T06:13:21;25.55;;;17.80;;
38725;SDS011;24474;48.906;8.808;2023-03-01T06:15:48;25.73;;;17.67;;
38725;SDS011;24474;48.906;8.808;2023-03-01T06:18:14;27.90;;;18.33;;
38725;SDS011;24474;48.906;8.808;2023-03-01T06:20:40;42.17;;;23.00;;
38725;SDS011;24474;48.906;8.808;2023-03-01T06:23:06;39.13;;;22.80;;
38725;SDS011;24474;48.906;8.808;2023-03-01T06:25:32;37.08;;;20.52;;
38725;SDS011;24474;48.906;8.808;2023-03-01T06:27:57;32.70;;;20.67;;
38725;SDS011;24474;48.906;8.808;2023-03-01T06:30:24;36.35;;;20.25;;
38725;SDS011;24474;48.906;8.808;2023-03-01T06:32:51;33.25;;;18.90;;
38725;SDS011;24474;48.906;8.808;2023-03-01T06:35:17;29.35;;;17.75;;
38725;SDS011;24474;48.906;8.808;2023-03-01T06:37:45;26.83;;;18.02;;
38725;SDS011;24474;48.906;8.808;2023-03-01T06:40:12;28.48;;;18.52;;
38725;SDS011;24474;48.906;8.808;2023-03-01T06:42:39;23.73;;;16.83;;
38725;SDS011;24474;48.906;8.808;2023-03-01T06:45:06;25.80;;;17.08;;
38725;SDS011;24474;48.906;8.808;2023-03-01T06:47:33;26.23;;;17.77;;
38725;SDS011;24474;48.906;8.808;2023-03-01T06:49:59;31.52;;;19.55;;
38725;SDS011;24474;48.906;8.808;2023-03-01T06:52:27;32.40;;;20.58;;
38725;SDS011;24474;48.906;8.808;2023-03-01T06:54:52;32.13;;;21.88;;
38725;SDS011;24474;48.906;8.808;2023-03-01T06:57:18;30.52;;;20.73;;
38725;SDS011;24474;48.906;8.808;2023-03-01T06:59:43;32.58;;;21.58;;
38725;SDS011;24474;48.906;8.808;2023-03-01T07:02:10;34.10;;;22.23;;
38725;SDS011;24474;48.906;8.808;2023-03-01T07:04:36;36.00;;;23.95;;
38725;SDS011;24474;48.906;8.808;2023-03-01T07:07:03;36.13;;;23.58;;
38725;SDS011;24474;48.906;8.808;2023-03-01T07:09:28;34.20;;;23.63;;
38725;SDS011;24474;48.906;8.808;2023-03-01T07:11:54;28.05;;;19.95;;
38725;SDS011;24474;48.906;8.808;2023-03-01T07:14:21;32.95;;;21.05;;
38725;SDS011;24474;48.906;8.808;2023-03-01T07:16:46;29.83;;;20.00;;
38725;SDS011;24474;48.906;8.808;2023-03-01T07:19:12;28.08;;;18.95;;
38725;SDS011;24474;48.906;8.808;2023-03-01T07:21:38;28.05;;;18.52;;
38725;SDS011;24474;48.906;8.808;2023-03-01T07:24:05;26.17;;;17.77;;
38725;SDS011;24474;48.906;8.808;2023-03-01T07:26:32;26.95;;;18.20;;
38725;SDS011;24474;48.906;8.808;2023-03-01T07:29:04;26.75;;;18.42;;
38725;SDS011;24474;48.906;8.808;2023-03-01T07:31:30;26.88;;;18.05;;
38725;SDS011;24474;48.906;8.808;2023-03-01T07:33:56;26.20;;;17.98;;
38725;SDS011;24474;48.906;8.808;2023-03-01T07:36:23;26.30;;;16.98;;
38725;SDS011;24474;48.906;8.808;2023-03-01T07:38:50;26.10;;;18.08;;
38725;SDS011;24474;48.906;8.808;2023-03-01T07:41:15;29.27;;;18.90;;
38725;SDS011;24474;48.906;8.808;2023-03-01T07:43:41;31.65;;;21.30;;
38725;SDS011;24474;48.906;8.808;2023-03-01T07:46:08;30.63;;;19.33;;
38725;SDS011;24474;48.906;8.808;2023-03-01T07:48:36;25.63;;;17.92;;
38725;SDS011;24474;48.906;8.808;2023-03-01T07:51:03;28.27;;;17.90;;
38725;SDS011;24474;48.906;8.808;2023-03-01T07:53:30;26.63;;;18.88;;
38725;SDS011;24474;48.906;8.808;2023-03-01T07:56:00;28.67;;;18.92;;
38725;SDS011;24474;48.906;8.808;2023-03-01T07:58:39;28.15;;;18.90;;
38725;SDS011;24474;48.906;8.808;2023-03-01T08:01:07;26.75;;;18.25;;
38725;SDS011;24474;48.906;8.808;2023-03-01T08:03:34;26.95;;;18.73;;
38725;SDS011;24474;48.906;8.808;2023-03-01T08:06:01;26.08;;;18.27;;
38725;SDS011;24474;48.906;8.808;2023-03-01T08:08:28;27.38;;;18.35;;
38725;SDS011;24474;48.906;8.808;2023-03-01T08:10:57;26.45;;;18.88;;
38725;SDS011;24474;48.906;8.808;2023-03-01T08:13:25;28.83;;;19.17;;
38725;SDS011;24474;48.906;8.808;2023-03-01T08:15:51;27.00;;;19.27;;
38725;SDS011;24474;48.906;8.808;2023-03-01T08:18:26;28.05;;;19.02;;
38725;SDS011;24474;48.906;8.808;2023-03-01T08:20:53;28.55;;;19.63;;
38725;SDS011;24474;48.906;8.808;2023-03-01T08:23:19;31.92;;;19.45;;
38725;SDS011;24474;48.906;8.808;2023-03-01T08:25:45;27.50;;;18.98;;
38725;SDS011;24474;48.906;8.808;2023-03-01T08:28:11;30.00;;;20.45;;
38725;SDS011;24474;48.906;8.808;2023-03-01T08:30:41;34.92;;;21.35;;
38725;SDS011;24474;48.906;8.808;2023-03-01T08:33:06;30.05;;;19.58;;
38725;SDS011;24474;48.906;8.808;2023-03-01T08:35:32;29.80;;;19.13;;
38725;SDS011;24474;48.906;8.808;2023-03-01T08:37:57;29.88;;;19.67;;
38725;SDS011;24474;48.906;8.808;2023-03-01T08:40:23;31.15;;;20.08;;
38725;SDS011;24474;48.906;8.808;2023-03-01T08:42:48;28.58;;;19.85;;
38725;SDS011;24474;48.906;8.808;2023-03-01T08:45:14;29.35;;;20.20;;
38725;SDS011;24474;48.906;8.808;2023-03-01T08:47:43;30.77;;;19.80;;
38725;SDS011;24474;48.906;8.808;2023-03-01T08:50:10;30.10;;;19.45;;
38725;SDS011;24474;48.906;8.808;2023-03-01T08:52:36;26.90;;;19.45;;
38725;SDS011;24474;48.906;8.808;2023-03-01T08:55:01;34.10;;;21.35;;
38725;SDS011;24474;48.906;8.808;2023-03-01T08:57:27;26.33;;;18.67;;
38725;SDS011;24474;48.906;8.808;2023-03-01T08:59:54;27.05;;;19.15;;
38725;SDS011;24474;48.906;8.808;2023-03-01T09:02:21;31.40;;;19.52;;
38725;SDS011;24474;48.906;8.808;2023-03-01T09:04:48;29.90;;;19.13;;
38725;SDS011;24474;48.906;8.808;2023-03-01T09:07:14;31.10;;;19.88;;
38725;SDS011;24474;48.906;8.808;2023-03-01T09:09:41;26.85;;;18.40;;
38725;SDS011;24474;48.906;8.808;2023-03-01T09:12:08;28.70;;;19.67;;
38725;SDS011;24474;48.906;8.808;2023-03-01T09:14:33;27.23;;;19.55;;
38725;SDS011;24474;48.906;8.808;2023-03-01T09:17:00;28.42;;;20.27;;
38725;SDS011;24474;48.906;8.808;2023-03-01T09:19:29;28.15;;;19.90;;
38725;SDS011;24474;48.906;8.808;2023-03-01T09:21:54;26.10;;;19.20;;
38725;SDS011;24474;48.906;8.808;2023-03-01T09:24:23;30.33;;;20.00;;
38725;SDS011;24474;48.906;8.808;2023-03-01T09:26:52;26.02;;;18.35;;
38725;SDS011;24474;48.906;8.808;2023-03-01T09:29:19;29.27;;;19.33;;
38725;SDS011;24474;48.906;8.808;2023-03-01T09:31:48;30.65;;;19.35;;
38725;SDS011;24474;48.906;8.808;2023-03-01T09:34:14;30.90;;;19.58;;
38725;SDS011;24474;48.906;8.808;2023-03-01T09:36:45;30.13;;;19.50;;
38725;SDS011;24474;48.906;8.808;2023-03-01T09:39:11;28.50;;;19.63;;
38725;SDS011;24474;48.906;8.808;2023-03-01T09:44:29;28.67;;;19.67;;
38725;SDS011;24474;48.906;8.808;2023-03-01T09:47:35;34.72;;;19.67;;
38725;SDS011;24474;48.906;8.808;2023-03-01T09:50:15;29.48;;;21.05;;
38725;SDS011;24474;48.906;8.808;2023-03-01T09:55:39;26.38;;;17.73;;
38725;SDS011;24474;48.906;8.808;2023-03-01T10:01:26;26.90;;;17.80;;
38725;SDS011;24474;48.906;8.808;2023-03-01T10:04:12;27.83;;;18.83;;
38725;SDS011;24474;48.906;8.808;2023-03-01T10:09:38;27.25;;;18.90;;
38725;SDS011;24474;48.906;8.808;2023-03-01T10:12:09;29.60;;;19.30;;
38725;SDS011;24474;48.906;8.808;2023-03-01T10:17:57;27.52;;;18.55;;
38725;SDS011;24474;48.906;8.808;2023-03-01T10:20:42;30.77;;;18.60;;
38725;SDS011;24474;48.906;8.808;2023-03-01T10:23:14;27.35;;;19.20;;
38725;SDS011;24474;48.906;8.808;2023-03-01T10:31:15;27.77;;;19.05;;
38725;SDS011;24474;48.906;8.808;2023-03-01T10:33:48;27.05;;;18.42;;
38725;SDS011;24474;48.906;8.808;2023-03-01T10:36:20;26.60;;;18.75;;
38725;SDS011;24474;48.906;8.808;2023-03-01T10:38:53;28.38;;;18.45;;
38725;SDS011;24474;48.906;8.808;2023-03-01T10:41:23;25.58;;;18.58;;
38725;SDS011;24474;48.906;8.808;2023-03-01T10:43:55;27.17;;;19.25;;
38725;SDS011;24474;48.906;8.808;2023-03-01T10:51:42;26.08;;;19.15;;
38725;SDS011;24474;48.906;8.808;2023-03-01T10:54:18;24.13;;;18.13;;
38725;SDS011;24474;48.906;8.808;2023-03-01T10:56:51;24.52;;;18.75;;
38725;SDS011;24474;48.906;8.808;2023-03-01T10:59:33;24.02;;;18.25;;
38725;SDS011;24474;48.906;8.808;2023-03-01T11:02:02;24.40;;;17.77;;
38725;SDS011;24474;48.906;8.808;2023-03-01T11:04:35;24.75;;;17.98;;
38725;SDS011;24474;48.906;8.808;2023-03-01T11:07:01;25.30;;;18.17;;
38725;SDS011;24474;48.906;8.808;2023-03-01T11:09:32;27.85;;;18.60;;
38725;SDS011;24474;48.906;8.808;2023-03-01T11:12:13;24.50;;;17.35;;
38725;SDS011;24474;48.906;8.808;2023-03-01T11:14:53;25.30;;;18.13;;
38725;SDS011;24474;48.906;8.808;2023-03-01T11:17:23;26.83;;;18.33;;
38725;SDS011;24474;48.906;8.808;2023-03-01T11:23:05;26.55;;;17.83;;
38725;SDS011;24474;48.906;8.808;2023-03-01T11:25:43;29.95;;;18.05;;
38725;SDS011;24474;48.906;8.808;2023-03-01T11:28:16;25.08;;;18.00;;
38725;SDS011;24474;48.906;8.808;2023-03-01T11:42:12;25.00;;;17.75;;
38725;SDS011;24474;48.906;8.808;2023-03-01T11:45:08;24.40;;;17.88;;
38725;SDS011;24474;48.906;8.808;2023-03-01T11:59:41;27.88;;;18.02;;
38725;SDS011;24474;48.906;8.808;2023-03-01T12:05:13;23.65;;;17.80;;
38725;SDS011;24474;48.906;8.808;2023-03-01T12:14:02;23.30;;;17.13;;
38725;SDS011;24474;48.906;8.808;2023-03-01T12:31:32;24.27;;;17.45;;
38725;SDS011;24474;48.906;8.808;2023-03-01T12:45:50;21.40;;;17.20;;
38725;SDS011;24474;48.906;8.808;2023-03-01T12:48:40;23.88;;;16.85;;
38725;SDS011;24474;48.906;8.808;2023-03-01T12:51:36;23.70;;;17.30;;
38725;SDS011;24474;48.906;8.808;2023-03-01T12:54:46;25.63;;;17.40;;
38725;SDS011;24474;48.906;8.808;2023-03-01T12:56:58;24.20;;;17.58;;
38725;SDS011;24474;48.906;8.808;2023-03-01T13:00:00;25.47;;;17.87;;
38725;SDS011;24474;48.906;8.808;2023-03-01T13:03:10;21.65;;;16.55;;
38725;SDS011;24474;48.906;8.808;2023-03-01T13:06:08;24.45;;;17.75;;
38725;SDS011;24474;48.906;8.808;2023-03-01T13:09:24;22.35;;;16.83;;
38725;SDS011;24474;48.906;8.808;2023-03-01T13:11:58;23.13;;;18.15;;
38725;SDS011;24474;48.906;8.808;2023-03-01T13:17:03;24.17;;;17.27;;
38725;SDS011;24474;48.906;8.808;2023-03-01T13:19:31;25.58;;;17.55;;
38725;SDS011;24474;48.906;8.808;2023-03-01T13:21:58;23.45;;;17.33;;
38725;SDS011;24474;48.906;8.808;2023-03-01T13:24:39;20.90;;;16.52;;
38725;SDS011;24474;48.906;8.808;2023-03-01T13:34:50;23.23;;;18.02;;
38725;SDS011;24474;48.906;8.808;2023-03-01T13:37:19;25.77;;;18.70;;
38725;SDS011;24474;48.906;8.808;2023-03-01T13:39:51;25.30;;;18.20;;
38725;SDS011;24474;48.906;8.808;2023-03-01T13:45:15;22.95;;;18.15;;
38725;SDS011;24474;48.906;8.808;2023-03-01T13:47:49;23.70;;;17.58;;
38725;SDS011;24474;48.906;8.808;2023-03-01T13:50:24;21.98;;;17.25;;
38725;SDS011;24474;48.906;8.808;2023-03-01T13:52:56;22.55;;;18.17;;
38725;SDS011;24474;48.906;8.808;2023-03-01T14:00:55;23.88;;;17.67;;
38725;SDS011;24474;48.906;8.808;2023-03-01T14:03:23;24.58;;;17.83;;
38725;SDS011;24474;48.906;8.808;2023-03-01T14:06:03;23.50;;;17.80;;
38725;SDS011;24474;48.906;8.808;2023-03-01T14:08:34;28.20;;;18.55;;
38725;SDS011;24474;48.906;8.808;2023-03-01T14:19:29;23.45;;;17.17;;
38725;SDS011;24474;48.906;8.808;2023-03-01T14:22:00;21.40;;;17.13;;
38725;SDS011;24474;48.906;8.808;2023-03-01T14:27:44;22.63;;;17.08;;
38725;SDS011;24474;48.906;8.808;2023-03-01T14:32:51;23.98;;;18.23;;
38725;SDS011;24474;48.906;8.808;2023-03-01T14:35:23;23.30;;;18.27;;
38725;SDS011;24474;48.906;8.808;2023-03-01T14:37:50;23.27;;;17.30;;
38725;SDS011;24474;48.906;8.808;2023-03-01T14:40:26;24.73;;;17.60;;
38725;SDS011;24474;48.906;8.808;2023-03-01T14:42:56;23.02;;;16.92;;
38725;SDS011;24474;48.906;8.808;2023-03-01T14:45:29;23.95;;;17.45;;
38725;SDS011;24474;48.906;8.808;2023-03-01T14:47:58;22.67;;;17.58;;
38725;SDS011;24474;48.906;8.808;2023-03-01T14:50:30;25.45;;;16.42;;
38725;SDS011;24474;48.906;8.808;2023-03-01T14:52:59;22.42;;;16.85;;
38725;SDS011;24474;48.906;8.808;2023-03-01T14:55:32;23.65;;;16.40;;
38725;SDS011;24474;48.906;8.808;2023-03-01T14:58:04;23.80;;;17.40;;
38725;SDS011;24474;48.906;8.808;2023-03-01T15:00:31;23.45;;;17.83;;
38725;SDS011;24474;48.906;8.808;2023-03-01T15:03:19;23.67;;;17.75;;
38725;SDS011;24474;48.906;8.808;2023-03-01T15:05:50;25.13;;;18.20;;
38725;SDS011;24474;48.906;8.808;2023-03-01T15:08:17;25.00;;;18.48;;
38725;SDS011;24474;48.906;8.808;2023-03-01T15:13:42;20.85;;;16.15;;
38725;SDS011;24474;48.906;8.808;2023-03-01T15:16:18;24.67;;;17.08;;
38725;SDS011;24474;48.906;8.808;2023-03-01T15:18:46;23.58;;;17.83;;
38725;SDS011;24474;48.906;8.808;2023-03-01T15:21:35;22.00;;;17.05;;
38725;SDS011;24474;48.906;8.808;2023-03-01T15:26:50;21.65;;;16.83;;
38725;SDS011;24474;48.906;8.808;2023-03-01T15:29:23;25.83;;;16.17;;
38725;SDS011;24474;48.906;8.808;2023-03-01T15:31:57;22.15;;;16.70;;
38725;SDS011;24474;48.906;8.808;2023-03-01T15:34:29;23.02;;;17.42;;
38725;SDS011;24474;48.906;8.808;2023-03-01T15:37:05;20.77;;;15.80;;
38725;SDS011;24474;48.906;8.808;2023-03-01T15:39:55;23.45;;;16.25;;
38725;SDS011;24474;48.906;8.808;2023-03-01T15:47:46;22.40;;;16.90;;
38725;SDS011;24474;48.906;8.808;2023-03-01T15:50:27;22.02;;;16.02;;
38725;SDS011;24474;48.906;8.808;2023-03-01T15:53:10;23.23;;;16.70;;
38725;SDS011;24474;48.906;8.808;2023-03-01T15:55:39;21.95;;;16.33;;
38725;SDS011;24474;48.906;8.808;2023-03-01T15:58:28;21.52;;;16.15;;
38725;SDS011;24474;48.906;8.808;2023-03-01T16:00:54;22.63;;;16.30;;
38725;SDS011;24474;48.906;8.808;2023-03-01T16:03:23;23.77;;;17.13;;
38725;SDS011;24474;48.906;8.808;2023-03-01T16:05:49;22.35;;;17.05;;
38725;SDS011;24474;48.906;8.808;2023-03-01T16:08:17;21.73;;;15.60;;
38725;SDS011;24474;48.906;8.808;2023-03-01T16:10:43;22.73;;;16.38;;
38725;SDS011;24474;48.906;8.808;2023-03-01T16:13:12;21.50;;;15.77;;
38725;SDS011;24474;48.906;8.808;2023-03-01T16:15:39;23.27;;;16.63;;
38725;SDS011;24474;48.906;8.808;2023-03-01T16:18:05;20.85;;;16.05;;
38725;SDS011;24474;48.906;8.808;2023-03-01T16:20:33;22.00;;;15.90;;
38725;SDS011;24474;48.906;8.808;2023-03-01T16:22:59;23.23;;;15.93;;
38725;SDS011;24474;48.906;8.808;2023-03-01T16:25:26;22.13;;;16.33;;
38725;SDS011;24474;48.906;8.808;2023-03-01T16:27:52;21.17;;;16.40;;
38725;SDS011;24474;48.906;8.808;2023-03-01T16:30:19;22.65;;;16.40;;
38725;SDS011;24474;48.906;8.808;2023-03-01T16:32:47;22.33;;;16.42;;
38725;SDS011;24474;48.906;8.808;2023-03-01T16:35:15;19.98;;;15.02;;
38725;SDS011;24474;48.906;8.808;2023-03-01T16:37:42;22.65;;;16.63;;
38725;SDS011;24474;48.906;8.808;2023-03-01T16:40:16;22.48;;;15.82;;
38725;SDS011;24474;48.906;8.808;2023-03-01T16:42:42;21.58;;;16.15;;
38725;SDS011;24474;48.906;8.808;2023-03-01T16:45:08;21.25;;;15.40;;
38725;SDS011;24474;48.906;8.808;2023-03-01T16:47:34;24.17;;;15.85;;
38725;SDS011;24474;48.906;8.808;2023-03-01T16:50:00;23.50;;;15.43;;
38725;SDS011;24474;48.906;8.808;2023-03-01T16:52:26;25.13;;;16.80;;
38725;SDS011;24474;48.906;8.808;2023-03-01T16:54:52;21.92;;;16.63;;
38725;SDS011;24474;48.906;8.808;2023-03-01T16:57:18;22.85;;;16.42;;
38725;SDS011;24474;48.906;8.808;2023-03-01T16:59:44;22.92;;;16.80;;
38725;SDS011;24474;48.906;8.808;2023-03-01T17:02:11;25.08;;;17.13;;
38725;SDS011;24474;48.906;8.808;2023-03-01T17:04:41;23.33;;;16.65;;